sensor_id;sensor_type;location;lat;lon;timestamp;pressure;altitude;pressure_sealevel;temperature;humidity
43681;BME280;29281;50.356;30.894;2022-09-29T00:00:52;99204.23;;;11.17;100.00
43681;BME280;29281;50.356;30.894;2022-09-29T00:01:55;99210.97;;;11.21;100.00
43681;BME280;29281;50.356;30.894;2022-09-29T00:02:58;99212.33;;;11.15;100.00
43681;BME280;29281;50.356;30.894;2022-09-29T00:04:01;99206.46;;;11.12;100.00
43681;BME280;29281;50.356;30.894;2022-09-29T00:05:05;99214.69;;;11.09;100.00
43681;BME280;29281;50.356;30.894;2022-09-29T00:06:13;99206.59;;;11.10;100.00
43681;BME280;29281;50.356;30.894;2022-09-29T00:07:20;99212.16;;;11.07;100.00
43681;BME280;29281;50.356;30.894;2022-09-29T00:08:26;99218.70;;;11.03;100.00
43681;BME280;29281;50.356;30.894;2022-09-29T00:09:36;99215.20;;;11.03;100.00
43681;BME280;29281;50.356;30.894;2022-09-29T00:10:45;99207.23;;;11.03;100.00
43681;BME280;29281;50.356;30.894;2022-09-29T00:11:52;99207.10;;;11.04;100.00
43681;BME280;29281;50.356;30.894;2022-09-29T00:12:55;99216.17;;;11.02;100.00
43681;BME280;29281;50.356;30.894;2022-09-29T00:13:59;99209.05;;;11.02;100.00
43681;BME280;29281;50.356;30.894;2022-09-29T00:15:06;99205.03;;;11.08;100.00
43681;BME280;29281;50.356;30.894;2022-09-29T00:16:09;99208.66;;;11.07;100.00
43681;BME280;29281;50.356;30.894;2022-09-29T00:17:15;99205.63;;;11.11;100.00
43681;BME280;29281;50.356;30.894;2022-09-29T00:18:18;99201.28;;;11.10;100.00
43681;BME280;29281;50.356;30.894;2022-09-29T00:19:22;99201.41;;;11.09;100.00
43681;BME280;29281;50.356;30.894;2022-09-29T00:20:29;99210.34;;;11.08;100.00
43681;BME280;29281;50.356;30.894;2022-09-29T00:21:35;99204.45;;;11.04;100.00
43681;BME280;29281;50.356;30.894;2022-09-29T00:22:38;99204.31;;;11.06;100.00
43681;BME280;29281;50.356;30.894;2022-09-29T00:23:41;99212.83;;;11.00;100.00
43681;BME280;29281;50.356;30.894;2022-09-29T00:24:45;99207.64;;;10.98;100.00
43681;BME280;29281;50.356;30.894;2022-09-29T00:25:57;99204.41;;;10.95;100.00
43681;BME280;29281;50.356;30.894;2022-09-29T00:26:56;99209.84;;;10.93;100.00
43681;BME280;29281;50.356;30.894;2022-09-29T00:27:59;99210.69;;;10.93;100.00
43681;BME280;29281;50.356;30.894;2022-09-29T00:29:02;99214.06;;;10.96;100.00
43681;BME280;29281;50.356;30.894;2022-09-29T00:30:05;99219.75;;;10.91;100.00
43681;BME280;29281;50.356;30.894;2022-09-29T00:31:08;99219.62;;;10.92;100.00
43681;BME280;29281;50.356;30.894;2022-09-29T00:32:13;99224.22;;;10.90;100.00
43681;BME280;29281;50.356;30.894;2022-09-29T00:33:17;99225.19;;;10.89;100.00
43681;BME280;29281;50.356;30.894;2022-09-29T00:34:21;99226.88;;;10.90;100.00
43681;BME280;29281;50.356;30.894;2022-09-29T00:35:24;99230.06;;;10.84;100.00
43681;BME280;29281;50.356;30.894;2022-09-29T00:36:28;99232.01;;;10.82;100.00
43681;BME280;29281;50.356;30.894;2022-09-29T00:37:32;99230.20;;;10.83;100.00
43681;BME280;29281;50.356;30.894;2022-09-29T00:38:37;99243.19;;;10.86;100.00
43681;BME280;29281;50.356;30.894;2022-09-29T00:39:42;99240.53;;;10.86;100.00
43681;BME280;29281;50.356;30.894;2022-09-29T00:40:48;99241.89;;;11.01;100.00
43681;BME280;29281;50.356;30.894;2022-09-29T00:41:51;99232.66;;;10.96;100.00
43681;BME280;29281;50.356;30.894;2022-09-29T00:42:55;99243.45;;;11.04;100.00
43681;BME280;29281;50.356;30.894;2022-09-29T00:44:02;99242.36;;;11.06;100.00
43681;BME280;29281;50.356;30.894;2022-09-29T00:46:15;99238.55;;;10.99;100.00
43681;BME280;29281;50.356;30.894;2022-09-29T00:47:19;99243.15;;;10.97;100.00
43681;BME280;29281;50.356;30.894;2022-09-29T00:48:27;99242.19;;;10.98;100.00
43681;BME280;29281;50.356;30.894;2022-09-29T00:50:44;99243.53;;;10.92;100.00
43681;BME280;29281;50.356;30.894;2022-09-29T00:53:06;99245.47;;;10.90;100.00
43681;BME280;29281;50.356;30.894;2022-09-29T00:54:12;99248.00;;;10.92;100.00
43681;BME280;29281;50.356;30.894;2022-09-29T00:55:17;99255.00;;;10.93;100.00
43681;BME280;29281;50.356;30.894;2022-09-29T00:56:21;99246.19;;;10.92;100.00
43681;BME280;29281;50.356;30.894;2022-09-29T00:57:32;99244.03;;;10.86;100.00
43681;BME280;29281;50.356;30.894;2022-09-29T00:58:38;99245.84;;;10.86;100.00
43681;BME280;29281;50.356;30.894;2022-09-29T00:59:48;99250.66;;;10.92;100.00
43681;BME280;29281;50.356;30.894;2022-09-29T01:00:48;99254.75;;;10.96;100.00
43681;BME280;29281;50.356;30.894;2022-09-29T01:01:51;99252.80;;;10.98;100.00
43681;BME280;29281;50.356;30.894;2022-09-29T01:03:03;99263.99;;;11.02;100.00
43681;BME280;29281;50.356;30.894;2022-09-29T01:04:12;99260.78;;;10.98;100.00
43681;BME280;29281;50.356;30.894;2022-09-29T01:05:12;99263.44;;;10.98;100.00
43681;BME280;29281;50.356;30.894;2022-09-29T01:06:18;99260.49;;;11.01;100.00
43681;BME280;29281;50.356;30.894;2022-09-29T01:07:21;99262.59;;;10.98;100.00
43681;BME280;29281;50.356;30.894;2022-09-29T01:09:44;99266.09;;;10.98;100.00
43681;BME280;29281;50.356;30.894;2022-09-29T01:10:49;99262.00;;;10.94;100.00
43681;BME280;29281;50.356;30.894;2022-09-29T01:11:54;99274.63;;;10.81;100.00
43681;BME280;29281;50.356;30.894;2022-09-29T01:12:58;99283.44;;;10.81;100.00
43681;BME280;29281;50.356;30.894;2022-09-29T01:14:04;99280.91;;;10.80;100.00
43681;BME280;29281;50.356;30.894;2022-09-29T01:15:08;99286.22;;;10.80;100.00
43681;BME280;29281;50.356;30.894;2022-09-29T01:16:15;99289.47;;;10.83;100.00
43681;BME280;29281;50.356;30.894;2022-09-29T01:17:18;99298.13;;;10.85;100.00
43681;BME280;29281;50.356;30.894;2022-09-29T01:18:21;99286.66;;;10.85;100.00
43681;BME280;29281;50.356;30.894;2022-09-29T01:19:28;99289.91;;;10.88;100.00
43681;BME280;29281;50.356;30.894;2022-09-29T01:20:38;99291.47;;;10.91;100.00
43681;BME280;29281;50.356;30.894;2022-09-29T01:21:57;99298.22;;;10.95;100.00
43681;BME280;29281;50.356;30.894;2022-09-29T01:24:11;99295.62;;;10.84;100.00
43681;BME280;29281;50.356;30.894;2022-09-29T01:28:01;99300.53;;;10.88;100.00
43681;BME280;29281;50.356;30.894;2022-09-29T01:29:05;99307.66;;;10.88;100.00
43681;BME280;29281;50.356;30.894;2022-09-29T01:33:42;99297.81;;;10.79;100.00
43681;BME280;29281;50.356;30.894;2022-09-29T01:34:57;99306.09;;;10.85;100.00
43681;BME280;29281;50.356;30.894;2022-09-29T01:39:42;99301.63;;;10.86;100.00
43681;BME280;29281;50.356;30.894;2022-09-29T01:42:12;99307.66;;;10.88;100.00
43681;BME280;29281;50.356;30.894;2022-09-29T01:43:22;99310.31;;;10.88;100.00
43681;BME280;29281;50.356;30.894;2022-09-29T01:44:25;99308.37;;;10.90;100.00
43681;BME280;29281;50.356;30.894;2022-09-29T01:45:33;99307.16;;;10.94;100.00
43681;BME280;29281;50.356;30.894;2022-09-29T01:46:39;99314.16;;;10.95;100.00
43681;BME280;29281;50.356;30.894;2022-09-29T01:47:43;99307.28;;;10.92;100.00
43681;BME280;29281;50.356;30.894;2022-09-29T01:48:47;99313.31;;;10.95;100.00
43681;BME280;29281;50.356;30.894;2022-09-29T01:49:56;99307.41;;;10.91;100.00
43681;BME280;29281;50.356;30.894;2022-09-29T01:51:00;99318.50;;;10.96;100.00
43681;BME280;29281;50.356;30.894;2022-09-29T01:52:10;99316.34;;;10.90;100.00
43681;BME280;29281;50.356;30.894;2022-09-29T01:53:14;99320.19;;;10.97;100.00
43681;BME280;29281;50.356;30.894;2022-09-29T01:54:21;99318.09;;;11.01;100.00
43681;BME280;29281;50.356;30.894;2022-09-29T01:55:25;99318.94;;;11.01;100.00
43681;BME280;29281;50.356;30.894;2022-09-29T01:56:35;99317.72;;;11.05;100.00
43681;BME280;29281;50.356;30.894;2022-09-29T01:57:49;99319.16;;;11.09;100.00
43681;BME280;29281;50.356;30.894;2022-09-29T01:58:57;99307.44;;;11.12;100.00
43681;BME280;29281;50.356;30.894;2022-09-29T02:00:10;99313.72;;;11.11;100.00
43681;BME280;29281;50.356;30.894;2022-09-29T02:01:14;99321.56;;;11.12;100.00
43681;BME280;29281;50.356;30.894;2022-09-29T02:02:25;99317.97;;;11.02;100.00
43681;BME280;29281;50.356;30.894;2022-09-29T02:03:29;99310.00;;;11.02;100.00
43681;BME280;29281;50.356;30.894;2022-09-29T02:04:47;99314.94;;;11.07;100.00
43681;BME280;29281;50.356;30.894;2022-09-29T02:05:51;99314.03;;;10.97;100.00
43681;BME280;29281;50.356;30.894;2022-09-29T02:07:00;99318.09;;;11.01;100.00
43681;BME280;29281;50.356;30.894;2022-09-29T02:08:10;99315.31;;;11.02;100.00
43681;BME280;29281;50.356;30.894;2022-09-29T02:09:16;99317.59;;;11.07;100.00
43681;BME280;29281;50.356;30.894;2022-09-29T02:10:21;99321.56;;;11.12;100.00
43681;BME280;29281;50.356;30.894;2022-09-29T02:11:25;99312.09;;;11.19;100.00
43681;BME280;29281;50.356;30.894;2022-09-29T02:12:29;99313.64;;;11.22;100.00
43681;BME280;29281;50.356;30.894;2022-09-29T02:14:43;99302.84;;;11.14;100.00
43681;BME280;29281;50.356;30.894;2022-09-29T02:15:49;99314.56;;;11.11;100.00
43681;BME280;29281;50.356;30.894;2022-09-29T02:16:56;99318.12;;;11.21;100.00
43681;BME280;29281;50.356;30.894;2022-09-29T02:18:02;99317.99;;;11.23;100.00
43681;BME280;29281;50.356;30.894;2022-09-29T02:19:05;99313.52;;;11.23;100.00
43681;BME280;29281;50.356;30.894;2022-09-29T02:20:10;99320.14;;;11.29;100.00
43681;BME280;29281;50.356;30.894;2022-09-29T02:21:16;99320.40;;;11.26;100.00
43681;BME280;29281;50.356;30.894;2022-09-29T02:22:19;99322.93;;;11.27;100.00
43681;BME280;29281;50.356;30.894;2022-09-29T02:23:23;99328.24;;;11.27;100.00
43681;BME280;29281;50.356;30.894;2022-09-29T02:24:29;99327.15;;;11.30;100.00
43681;BME280;29281;50.356;30.894;2022-09-29T02:25:34;99321.42;;;11.35;100.00
43681;BME280;29281;50.356;30.894;2022-09-29T02:26:37;99327.58;;;11.35;100.00
43681;BME280;29281;50.356;30.894;2022-09-29T02:27:43;99319.48;;;11.37;100.00
43681;BME280;29281;50.356;30.894;2022-09-29T02:28:47;99321.30;;;11.36;100.00
43681;BME280;29281;50.356;30.894;2022-09-29T02:29:49;99322.14;;;11.37;100.00
43681;BME280;29281;50.356;30.894;2022-09-29T02:30:53;99333.36;;;11.40;100.00
43681;BME280;29281;50.356;30.894;2022-09-29T02:31:56;99329.47;;;11.44;100.00
43681;BME280;29281;50.356;30.894;2022-09-29T02:33:03;99325.26;;;11.42;100.00
43681;BME280;29281;50.356;30.894;2022-09-29T02:34:09;99326.23;;;11.41;100.00
43681;BME280;29281;50.356;30.894;2022-09-29T02:35:14;99334.80;;;11.44;100.00
43681;BME280;29281;50.356;30.894;2022-09-29T02:39:00;99327.91;;;11.42;100.00
43681;BME280;29281;50.356;30.894;2022-09-29T02:40:19;99325.69;;;11.47;100.00
43681;BME280;29281;50.356;30.894;2022-09-29T02:41:27;99324.20;;;11.54;100.00
43681;BME280;29281;50.356;30.894;2022-09-29T02:43:47;99326.47;;;11.58;100.00
43681;BME280;29281;50.356;30.894;2022-09-29T02:47:06;99327.66;;;11.45;100.00
43681;BME280;29281;50.356;30.894;2022-09-29T02:49:41;99326.23;;;11.41;100.00
43681;BME280;29281;50.356;30.894;2022-09-29T02:52:07;99330.11;;;11.37;100.00
43681;BME280;29281;50.356;30.894;2022-09-29T02:54:36;99331.08;;;11.56;100.00
43681;BME280;29281;50.356;30.894;2022-09-29T02:55:42;99333.41;;;11.50;100.00
43681;BME280;29281;50.356;30.894;2022-09-29T02:57:01;99326.60;;;11.57;100.00
43681;BME280;29281;50.356;30.894;2022-09-29T02:58:06;99339.09;;;11.66;100.00
43681;BME280;29281;50.356;30.894;2022-09-29T02:59:09;99334.75;;;11.65;100.00
43681;BME280;29281;50.356;30.894;2022-09-29T03:00:14;99339.09;;;11.66;100.00
43681;BME280;29281;50.356;30.894;2022-09-29T03:01:20;99339.77;;;11.58;100.00
43681;BME280;29281;50.356;30.894;2022-09-29T03:02:25;99344.25;;;11.58;100.00
43681;BME280;29281;50.356;30.894;2022-09-29T03:03:33;99338.59;;;11.51;100.00
43681;BME280;29281;50.356;30.894;2022-09-29T03:04:34;99334.97;;;11.52;100.00
43681;BME280;29281;50.356;30.894;2022-09-29T03:05:38;99334.38;;;11.49;100.00
43681;BME280;29281;50.356;30.894;2022-09-29T03:06:41;99335.34;;;11.48;100.00
43681;BME280;29281;50.356;30.894;2022-09-29T03:07:44;99334.38;;;11.49;100.00
43681;BME280;29281;50.356;30.894;2022-09-29T03:08:48;99332.81;;;11.46;100.00
43681;BME280;29281;50.356;30.894;2022-09-29T03:09:51;99331.08;;;11.36;100.00
43681;BME280;29281;50.356;30.894;2022-09-29T03:10:53;99330.06;;;11.27;100.00
43681;BME280;29281;50.356;30.894;2022-09-29T03:11:56;99333.02;;;11.34;100.00
43681;BME280;29281;50.356;30.894;2022-09-29T03:13:00;99329.39;;;11.35;100.00
43681;BME280;29281;50.356;30.894;2022-09-29T03:14:03;99331.55;;;11.41;100.00
43681;BME280;29281;50.356;30.894;2022-09-29T03:15:08;99332.98;;;11.45;100.00
43681;BME280;29281;50.356;30.894;2022-09-29T03:16:14;99344.50;;;11.34;100.00
43681;BME280;29281;50.356;30.894;2022-09-29T03:17:17;99339.00;;;11.26;100.00
43681;BME280;29281;50.356;30.894;2022-09-29T03:18:20;99334.71;;;11.35;100.00
43681;BME280;29281;50.356;30.894;2022-09-29T03:19:24;99327.66;;;11.45;100.00
43681;BME280;29281;50.356;30.894;2022-09-29T03:20:27;99328.09;;;11.50;100.00
43681;BME280;29281;50.356;30.894;2022-09-29T03:21:31;99323.36;;;11.53;100.00
43681;BME280;29281;50.356;30.894;2022-09-29T03:22:33;99328.55;;;11.55;100.00
43681;BME280;29281;50.356;30.894;2022-09-29T03:23:37;99332.05;;;11.55;100.00
43681;BME280;29281;50.356;30.894;2022-09-29T03:24:40;99328.16;;;11.59;100.00
43681;BME280;29281;50.356;30.894;2022-09-29T03:25:46;99336.98;;;11.60;100.00
43681;BME280;29281;50.356;30.894;2022-09-29T03:26:49;99341.05;;;11.64;100.00
43681;BME280;29281;50.356;30.894;2022-09-29T03:27:53;99332.89;;;11.56;100.00
43681;BME280;29281;50.356;30.894;2022-09-29T03:28:55;99336.27;;;11.58;100.00
43681;BME280;29281;50.356;30.894;2022-09-29T03:29:59;99332.34;;;11.62;100.00
43681;BME280;29281;50.356;30.894;2022-09-29T03:31:03;99338.64;;;11.61;100.00
43681;BME280;29281;50.356;30.894;2022-09-29T03:32:11;99337.67;;;11.62;100.00
43681;BME280;29281;50.356;30.894;2022-09-29T03:33:14;99334.12;;;11.52;100.00
43681;BME280;29281;50.356;30.894;2022-09-29T03:34:20;99335.55;;;11.56;100.00
43681;BME280;29281;50.356;30.894;2022-09-29T03:35:24;99341.72;;;11.56;100.00
43681;BME280;29281;50.356;30.894;2022-09-29T03:36:28;99336.66;;;11.53;100.00
43681;BME280;29281;50.356;30.894;2022-09-29T03:37:32;99340.28;;;11.52;100.00
43681;BME280;29281;50.356;30.894;2022-09-29T03:38:35;99331.84;;;11.47;100.00
43681;BME280;29281;50.356;30.894;2022-09-29T03:39:37;99332.81;;;11.46;100.00
43681;BME280;29281;50.356;30.894;2022-09-29T03:40:42;99337.16;;;11.47;100.00
43681;BME280;29281;50.356;30.894;2022-09-29T03:41:45;99338.13;;;11.46;100.00
43681;BME280;29281;50.356;30.894;2022-09-29T03:42:51;99341.97;;;11.53;100.00
43681;BME280;29281;50.356;30.894;2022-09-29T03:43:54;99348.00;;;11.55;100.00
43681;BME280;29281;50.356;30.894;2022-09-29T03:44:57;99348.00;;;11.55;100.00
43681;BME280;29281;50.356;30.894;2022-09-29T03:46:02;99355.27;;;11.53;100.00
43681;BME280;29281;50.356;30.894;2022-09-29T03:47:05;99355.39;;;11.52;100.00
43681;BME280;29281;50.356;30.894;2022-09-29T03:48:11;99347.88;;;11.57;100.00
43681;BME280;29281;50.356;30.894;2022-09-29T03:49:15;99348.13;;;11.54;100.00
43681;BME280;29281;50.356;30.894;2022-09-29T03:50:20;99345.34;;;11.55;100.00
43681;BME280;29281;50.356;30.894;2022-09-29T03:51:26;99350.41;;;11.58;100.00
43681;BME280;29281;50.356;30.894;2022-09-29T03:52:29;99351.77;;;11.53;100.00
43681;BME280;29281;50.356;30.894;2022-09-29T03:53:35;99354.04;;;11.57;100.00
43681;BME280;29281;50.356;30.894;2022-09-29T03:54:39;99358.26;;;11.60;100.00
43681;BME280;29281;50.356;30.894;2022-09-29T03:55:45;99359.66;;;11.64;100.00
43681;BME280;29281;50.356;30.894;2022-09-29T03:56:49;99362.32;;;11.64;100.00
43681;BME280;29281;50.356;30.894;2022-09-29T03:57:53;99361.09;;;11.68;100.00
43681;BME280;29281;50.356;30.894;2022-09-29T03:58:59;99363.63;;;11.70;100.00
43681;BME280;29281;50.356;30.894;2022-09-29T04:00:04;99367.00;;;11.72;100.00
43681;BME280;29281;50.356;30.894;2022-09-29T04:01:09;99360.70;;;11.73;100.00
43681;BME280;29281;50.356;30.894;2022-09-29T04:02:13;99371.47;;;11.71;100.00
43681;BME280;29281;50.356;30.894;2022-09-29T04:03:19;99371.09;;;11.55;100.00
43681;BME280;29281;50.356;30.894;2022-09-29T04:04:23;99367.64;;;11.64;100.00
43681;BME280;29281;50.356;30.894;2022-09-29T04:05:25;99370.50;;;11.72;100.00
43681;BME280;29281;50.356;30.894;2022-09-29T04:06:36;99373.48;;;11.79;100.00
43681;BME280;29281;50.356;30.894;2022-09-29T04:07:39;99372.97;;;11.85;100.00
43681;BME280;29281;50.356;30.894;2022-09-29T04:08:46;99374.92;;;11.83;100.00
43681;BME280;29281;50.356;30.894;2022-09-29T04:09:53;99369.98;;;11.78;100.00
43681;BME280;29281;50.356;30.894;2022-09-29T04:10:55;99369.34;;;11.86;100.00
43681;BME280;29281;50.356;30.894;2022-09-29T04:11:59;99374.11;;;11.92;100.00
43681;BME280;29281;50.356;30.894;2022-09-29T04:13:02;99379.18;;;11.95;100.00
43681;BME280;29281;50.356;30.894;2022-09-29T04:14:06;99380.28;;;11.92;100.00
43681;BME280;29281;50.356;30.894;2022-09-29T04:15:11;99377.10;;;11.98;100.00
43681;BME280;29281;50.356;30.894;2022-09-29T04:16:16;99381.45;;;12.00;100.00
43681;BME280;29281;50.356;30.894;2022-09-29T04:17:20;99369.13;;;11.98;100.00
43681;BME280;29281;50.356;30.894;2022-09-29T04:18:26;99376.52;;;11.95;100.00
43681;BME280;29281;50.356;30.894;2022-09-29T04:19:29;99380.61;;;11.99;100.00
43681;BME280;29281;50.356;30.894;2022-09-29T04:20:32;99376.52;;;11.95;99.71
43681;BME280;29281;50.356;30.894;2022-09-29T04:21:36;99377.95;;;11.99;100.00
43681;BME280;29281;50.356;30.894;2022-09-29T04:22:39;99381.22;;;11.82;100.00
43681;BME280;29281;50.356;30.894;2022-09-29T04:23:47;99374.08;;;11.82;99.99
43681;BME280;29281;50.356;30.894;2022-09-29T04:24:50;99379.96;;;11.65;100.00
43681;BME280;29281;50.356;30.894;2022-09-29T04:25:58;99379.84;;;11.67;100.00
43681;BME280;29281;50.356;30.894;2022-09-29T04:27:04;99385.28;;;11.65;100.00
43681;BME280;29281;50.356;30.894;2022-09-29T04:28:11;99385.16;;;11.67;100.00
43681;BME280;29281;50.356;30.894;2022-09-29T04:29:15;99383.80;;;11.72;100.00
43681;BME280;29281;50.356;30.894;2022-09-29T04:30:18;99387.17;;;11.74;100.00
43681;BME280;29281;50.356;30.894;2022-09-29T04:31:20;99390.63;;;11.86;100.00
43681;BME280;29281;50.356;30.894;2022-09-29T04:32:23;99391.34;;;11.88;100.00
43681;BME280;29281;50.356;30.894;2022-09-29T04:33:28;99385.28;;;11.65;100.00
43681;BME280;29281;50.356;30.894;2022-09-29T04:34:37;99392.75;;;11.71;100.00
43681;BME280;29281;50.356;30.894;2022-09-29T04:35:40;99400.22;;;11.77;99.87
43681;BME280;29281;50.356;30.894;2022-09-29T04:36:42;99392.44;;;11.85;100.00
43681;BME280;29281;50.356;30.894;2022-09-29T04:37:46;99397.55;;;11.98;99.93
43681;BME280;29281;50.356;30.894;2022-09-29T04:38:49;99398.72;;;12.05;99.46
43681;BME280;29281;50.356;30.894;2022-09-29T04:39:53;99401.25;;;12.07;99.18
43681;BME280;29281;50.356;30.894;2022-09-29T04:40:56;99400.44;;;12.16;98.62
43681;BME280;29281;50.356;30.894;2022-09-29T04:42:00;99407.05;;;12.21;98.55
43681;BME280;29281;50.356;30.894;2022-09-29T04:43:02;99400.33;;;12.27;98.58
43681;BME280;29281;50.356;30.894;2022-09-29T04:44:05;99397.28;;;12.31;98.53
43681;BME280;29281;50.356;30.894;2022-09-29T04:45:09;99399.55;;;12.36;98.20
43681;BME280;29281;50.356;30.894;2022-09-29T04:46:12;99403.59;;;12.40;97.95
43681;BME280;29281;50.356;30.894;2022-09-29T04:47:18;99400.94;;;12.40;98.01
43681;BME280;29281;50.356;30.894;2022-09-29T04:48:21;99399.55;;;12.36;99.57
43681;BME280;29281;50.356;30.894;2022-09-29T04:49:23;99398.12;;;12.32;99.74
43681;BME280;29281;50.356;30.894;2022-09-29T04:50:26;99397.98;;;12.33;99.18
43681;BME280;29281;50.356;30.894;2022-09-29T04:51:29;99402.89;;;12.38;98.97
43681;BME280;29281;50.356;30.894;2022-09-29T04:52:33;99398.41;;;12.39;99.29
43681;BME280;29281;50.356;30.894;2022-09-29T04:53:36;99392.11;;;12.40;98.32
43681;BME280;29281;50.356;30.894;2022-09-29T04:54:39;99400.28;;;12.48;98.31
43681;BME280;29281;50.356;30.894;2022-09-29T04:55:42;99396.20;;;12.53;97.91
43681;BME280;29281;50.356;30.894;2022-09-29T04:56:47;99399.19;;;12.60;97.87
43681;BME280;29281;50.356;30.894;2022-09-29T04:57:53;99400.87;;;12.61;97.74
43681;BME280;29281;50.356;30.894;2022-09-29T04:58:57;99410.81;;;12.59;97.62
43681;BME280;29281;50.356;30.894;2022-09-29T05:00:00;99409.26;;;12.56;99.46
43681;BME280;29281;50.356;30.894;2022-09-29T05:01:09;99403.94;;;12.56;99.56
43681;BME280;29281;50.356;30.894;2022-09-29T05:02:08;99412.05;;;12.55;100.00
43681;BME280;29281;50.356;30.894;2022-09-29T05:03:11;99410.53;;;12.52;100.00
43681;BME280;29281;50.356;30.894;2022-09-29T05:04:14;99414.19;;;12.61;99.28
43681;BME280;29281;50.356;30.894;2022-09-29T05:05:18;99405.67;;;12.67;98.71
43681;BME280;29281;50.356;30.894;2022-09-29T05:06:22;99407.32;;;12.68;99.09
43681;BME280;29281;50.356;30.894;2022-09-29T05:07:25;99412.95;;;12.75;98.65
43681;BME280;29281;50.356;30.894;2022-09-29T05:08:28;99405.94;;;12.74;98.49
43681;BME280;29281;50.356;30.894;2022-09-29T05:09:31;99404.13;;;12.74;98.97
43681;BME280;29281;50.356;30.894;2022-09-29T05:10:35;99406.92;;;12.73;98.16
43681;BME280;29281;50.356;30.894;2022-09-29T05:11:38;99398.08;;;12.72;98.78
43681;BME280;29281;50.356;30.894;2022-09-29T05:12:46;99398.26;;;12.80;98.12
43681;BME280;29281;50.356;30.894;2022-09-29T05:13:47;99403.86;;;12.87;97.84
43681;BME280;29281;50.356;30.894;2022-09-29T05:14:52;99398.97;;;12.92;98.50
43681;BME280;29281;50.356;30.894;2022-09-29T05:15:55;99400.25;;;12.97;97.47
43681;BME280;29281;50.356;30.894;2022-09-29T05:17:03;99397.41;;;12.99;96.89
43681;BME280;29281;50.356;30.894;2022-09-29T05:18:06;99401.36;;;12.95;97.00
43681;BME280;29281;50.356;30.894;2022-09-29T05:19:12;99402.75;;;12.99;96.37
43681;BME280;29281;50.356;30.894;2022-09-29T05:20:16;99400.52;;;12.94;98.18
43681;BME280;29281;50.356;30.894;2022-09-29T05:21:19;99402.75;;;12.89;99.12
43681;BME280;29281;50.356;30.894;2022-09-29T05:22:26;99405.14;;;12.92;98.70
43681;BME280;29281;50.356;30.894;2022-09-29T05:23:36;99412.73;;;12.97;98.72
43681;BME280;29281;50.356;30.894;2022-09-29T05:24:41;99410.74;;;12.99;98.16
43681;BME280;29281;50.356;30.894;2022-09-29T05:25:44;99408.38;;;12.96;98.65
43681;BME280;29281;50.356;30.894;2022-09-29T05:26:47;99405.14;;;13.02;97.46
43681;BME280;29281;50.356;30.894;2022-09-29T05:27:51;99412.42;;;13.00;98.95
43681;BME280;29281;50.356;30.894;2022-09-29T05:28:54;99418.91;;;12.97;98.37
43681;BME280;29281;50.356;30.894;2022-09-29T05:29:57;99422.44;;;13.17;97.30
43681;BME280;29281;50.356;30.894;2022-09-29T05:31:01;99418.25;;;13.24;97.34
43681;BME280;29281;50.356;30.894;2022-09-29T05:32:09;99419.78;;;13.17;97.11
43681;BME280;29281;50.356;30.894;2022-09-29T05:33:12;99429.46;;;13.18;97.47
43681;BME280;29281;50.356;30.894;2022-09-29T05:34:15;99428.64;;;13.27;97.47
43681;BME280;29281;50.356;30.894;2022-09-29T05:35:18;99423.57;;;13.34;97.39
43681;BME280;29281;50.356;30.894;2022-09-29T05:36:21;99429.06;;;13.42;96.33
43681;BME280;29281;50.356;30.894;2022-09-29T05:37:24;99429.33;;;13.49;95.49
43681;BME280;29281;50.356;30.894;2022-09-29T05:38:31;99440.68;;;13.60;94.45
43681;BME280;29281;50.356;30.894;2022-09-29T05:39:35;99432.26;;;13.65;94.75
43681;BME280;29281;50.356;30.894;2022-09-29T05:40:45;99435.06;;;13.63;95.53
43681;BME280;29281;50.356;30.894;2022-09-29T05:41:48;99432.26;;;13.65;94.23
43681;BME280;29281;50.356;30.894;2022-09-29T05:42:50;99429.45;;;13.66;93.80
43681;BME280;29281;50.356;30.894;2022-09-29T05:43:54;99428.05;;;13.72;93.83
43681;BME280;29281;50.356;30.894;2022-09-29T05:44:57;99426.62;;;13.78;93.98
43681;BME280;29281;50.356;30.894;2022-09-29T05:46:03;99426.91;;;13.84;94.61
43681;BME280;29281;50.356;30.894;2022-09-29T05:47:06;99419.59;;;13.86;94.95
43681;BME280;29281;50.356;30.894;2022-09-29T05:48:09;99426.31;;;13.90;93.96
43681;BME280;29281;50.356;30.894;2022-09-29T05:49:13;99432.91;;;13.96;92.90
43681;BME280;29281;50.356;30.894;2022-09-29T05:50:16;99430.52;;;13.93;94.51
43681;BME280;29281;50.356;30.894;2022-09-29T05:51:20;99437.13;;;13.98;94.18
43681;BME280;29281;50.356;30.894;2022-09-29T05:52:25;99430.84;;;13.90;94.54
43681;BME280;29281;50.356;30.894;2022-09-29T05:53:27;99434.59;;;13.97;94.89
43681;BME280;29281;50.356;30.894;2022-09-29T05:54:31;99433.00;;;14.14;93.59
43681;BME280;29281;50.356;30.894;2022-09-29T05:55:36;99434.09;;;14.21;93.49
43681;BME280;29281;50.356;30.894;2022-09-29T05:56:42;99437.60;;;14.21;93.31
43681;BME280;29281;50.356;30.894;2022-09-29T05:57:47;99438.77;;;14.19;91.52
43681;BME280;29281;50.356;30.894;2022-09-29T05:58:52;99435.72;;;14.04;92.88
43681;BME280;29281;50.356;30.894;2022-09-29T05:59:55;99441.30;;;14.11;93.31
43681;BME280;29281;50.356;30.894;2022-09-29T06:00:58;99443.34;;;13.89;92.96
43681;BME280;29281;50.356;30.894;2022-09-29T06:02:02;99450.75;;;13.95;93.23
43681;BME280;29281;50.356;30.894;2022-09-29T06:03:06;99450.89;;;13.94;92.76
43681;BME280;29281;50.356;30.894;2022-09-29T06:04:08;99446.53;;;14.02;93.52
43681;BME280;29281;50.356;30.894;2022-09-29T06:05:12;99451.56;;;14.05;92.43